sensor_id;sensor_type;location;lat;lon;timestamp;P1;durP1;ratioP1;P2;durP2;ratioP2
54883;SDS011;40776;52.880;6.016;2023-07-20T00:01:44;3.88;;;2.65;;
54883;SDS011;40776;52.880;6.016;2023-07-20T00:04:10;4.05;;;2.60;;
54883;SDS011;40776;52.880;6.016;2023-07-20T00:06:36;5.40;;;2.83;;
54883;SDS011;40776;52.880;6.016;2023-07-20T00:09:05;5.13;;;3.10;;
54883;SDS011;40776;52.880;6.016;2023-07-20T00:11:32;3.42;;;2.60;;
54883;SDS011;40776;52.880;6.016;2023-07-20T00:14:01;5.38;;;3.20;;
54883;SDS011;40776;52.880;6.016;2023-07-20T00:16:27;3.88;;;3.28;;
54883;SDS011;40776;52.880;6.016;2023-07-20T00:18:53;6.30;;;3.30;;
54883;SDS011;40776;52.880;6.016;2023-07-20T00:21:19;4.53;;;3.47;;
54883;SDS011;40776;52.880;6.016;2023-07-20T00:23:45;5.65;;;3.65;;
54883;SDS011;40776;52.880;6.016;2023-07-20T00:26:11;4.75;;;3.03;;
54883;SDS011;40776;52.880;6.016;2023-07-20T00:28:37;4.82;;;3.40;;
54883;SDS011;40776;52.880;6.016;2023-07-20T00:31:03;4.13;;;3.40;;
54883;SDS011;40776;52.880;6.016;2023-07-20T00:33:30;4.93;;;3.90;;
54883;SDS011;40776;52.880;6.016;2023-07-20T00:35:56;4.10;;;3.10;;
54883;SDS011;40776;52.880;6.016;2023-07-20T00:38:22;4.35;;;3.47;;
54883;SDS011;40776;52.880;6.016;2023-07-20T00:40:48;4.38;;;3.70;;
54883;SDS011;40776;52.880;6.016;2023-07-20T00:43:17;5.25;;;4.43;;
54883;SDS011;40776;52.880;6.016;2023-07-20T00:45:43;5.13;;;4.10;;
54883;SDS011;40776;52.880;6.016;2023-07-20T00:48:09;5.22;;;3.85;;
54883;SDS011;40776;52.880;6.016;2023-07-20T00:50:37;9.38;;;4.40;;
54883;SDS011;40776;52.880;6.016;2023-07-20T00:53:03;5.53;;;4.05;;
54883;SDS011;40776;52.880;6.016;2023-07-20T00:55:33;6.50;;;4.20;;
54883;SDS011;40776;52.880;6.016;2023-07-20T00:57:59;5.35;;;4.30;;
54883;SDS011;40776;52.880;6.016;2023-07-20T01:00:26;5.75;;;4.38;;
54883;SDS011;40776;52.880;6.016;2023-07-20T01:02:52;7.20;;;5.50;;
54883;SDS011;40776;52.880;6.016;2023-07-20T01:05:18;6.03;;;4.22;;
54883;SDS011;40776;52.880;6.016;2023-07-20T01:07:53;5.60;;;4.32;;
54883;SDS011;40776;52.880;6.016;2023-07-20T01:10:25;5.82;;;4.25;;
54883;SDS011;40776;52.880;6.016;2023-07-20T01:12:55;6.15;;;4.30;;
54883;SDS011;40776;52.880;6.016;2023-07-20T01:15:21;6.40;;;4.55;;
54883;SDS011;40776;52.880;6.016;2023-07-20T01:17:47;6.20;;;4.13;;
54883;SDS011;40776;52.880;6.016;2023-07-20T01:20:14;6.25;;;4.75;;
54883;SDS011;40776;52.880;6.016;2023-07-20T01:32:47;5.20;;;3.60;;
54883;SDS011;40776;52.880;6.016;2023-07-20T01:35:13;6.40;;;3.95;;
54883;SDS011;40776;52.880;6.016;2023-07-20T01:37:41;5.25;;;3.67;;
54883;SDS011;40776;52.880;6.016;2023-07-20T01:40:07;4.95;;;4.00;;
54883;SDS011;40776;52.880;6.016;2023-07-20T01:42:33;4.70;;;3.60;;
54883;SDS011;40776;52.880;6.016;2023-07-20T01:44:59;5.78;;;3.70;;
54883;SDS011;40776;52.880;6.016;2023-07-20T01:47:25;8.82;;;4.45;;
54883;SDS011;40776;52.880;6.016;2023-07-20T01:49:51;6.22;;;4.05;;
54883;SDS011;40776;52.880;6.016;2023-07-20T01:52:17;5.95;;;4.30;;
54883;SDS011;40776;52.880;6.016;2023-07-20T01:54:43;6.45;;;4.45;;
54883;SDS011;40776;52.880;6.016;2023-07-20T01:57:10;7.47;;;4.90;;
54883;SDS011;40776;52.880;6.016;2023-07-20T01:59:36;7.32;;;4.68;;
54883;SDS011;40776;52.880;6.016;2023-07-20T02:02:02;5.60;;;4.53;;
54883;SDS011;40776;52.880;6.016;2023-07-20T02:04:28;5.53;;;4.65;;
54883;SDS011;40776;52.880;6.016;2023-07-20T02:06:54;8.40;;;4.78;;
54883;SDS011;40776;52.880;6.016;2023-07-20T02:09:20;8.82;;;5.28;;
54883;SDS011;40776;52.880;6.016;2023-07-20T02:11:46;5.93;;;4.60;;
54883;SDS011;40776;52.880;6.016;2023-07-20T02:14:12;7.57;;;5.20;;
54883;SDS011;40776;52.880;6.016;2023-07-20T02:16:38;6.13;;;4.68;;
54883;SDS011;40776;52.880;6.016;2023-07-20T02:19:04;7.25;;;5.60;;
54883;SDS011;40776;52.880;6.016;2023-07-20T02:21:32;5.60;;;4.40;;
54883;SDS011;40776;52.880;6.016;2023-07-20T02:23:58;5.32;;;4.10;;
54883;SDS011;40776;52.880;6.016;2023-07-20T02:26:25;5.38;;;4.18;;
54883;SDS011;40776;52.880;6.016;2023-07-20T02:28:51;5.05;;;4.03;;
54883;SDS011;40776;52.880;6.016;2023-07-20T02:31:17;6.65;;;4.10;;
54883;SDS011;40776;52.880;6.016;2023-07-20T02:33:43;7.18;;;4.95;;
54883;SDS011;40776;52.880;6.016;2023-07-20T02:36:09;5.30;;;4.28;;
54883;SDS011;40776;52.880;6.016;2023-07-20T02:38:35;7.47;;;4.20;;
54883;SDS011;40776;52.880;6.016;2023-07-20T02:41:01;7.72;;;4.65;;
54883;SDS011;40776;52.880;6.016;2023-07-20T02:43:27;7.30;;;4.80;;
54883;SDS011;40776;52.880;6.016;2023-07-20T02:45:53;5.97;;;4.63;;
54883;SDS011;40776;52.880;6.016;2023-07-20T02:48:19;5.78;;;4.85;;
54883;SDS011;40776;52.880;6.016;2023-07-20T02:50:46;7.13;;;4.90;;
54883;SDS011;40776;52.880;6.016;2023-07-20T02:53:12;7.60;;;4.80;;
54883;SDS011;40776;52.880;6.016;2023-07-20T02:55:38;6.65;;;3.97;;
54883;SDS011;40776;52.880;6.016;2023-07-20T02:58:04;5.30;;;3.97;;
54883;SDS011;40776;52.880;6.016;2023-07-20T03:00:30;4.95;;;3.90;;
54883;SDS011;40776;52.880;6.016;2023-07-20T03:02:56;6.32;;;4.30;;
54883;SDS011;40776;52.880;6.016;2023-07-20T03:05:22;6.20;;;4.25;;
54883;SDS011;40776;52.880;6.016;2023-07-20T03:10:18;6.80;;;3.83;;
54883;SDS011;40776;52.880;6.016;2023-07-20T03:12:44;6.20;;;4.60;;
54883;SDS011;40776;52.880;6.016;2023-07-20T03:15:10;5.68;;;4.32;;
54883;SDS011;40776;52.880;6.016;2023-07-20T03:17:36;7.28;;;4.15;;
54883;SDS011;40776;52.880;6.016;2023-07-20T03:20:03;6.78;;;4.20;;
54883;SDS011;40776;52.880;6.016;2023-07-20T03:22:30;7.90;;;4.35;;
54883;SDS011;40776;52.880;6.016;2023-07-20T03:24:56;7.43;;;4.88;;
54883;SDS011;40776;52.880;6.016;2023-07-20T03:27:22;6.53;;;4.90;;
54883;SDS011;40776;52.880;6.016;2023-07-20T03:29:48;7.03;;;4.93;;
54883;SDS011;40776;52.880;6.016;2023-07-20T03:32:14;6.50;;;4.35;;
54883;SDS011;40776;52.880;6.016;2023-07-20T03:34:40;5.90;;;4.70;;
54883;SDS011;40776;52.880;6.016;2023-07-20T03:37:06;6.50;;;4.25;;
54883;SDS011;40776;52.880;6.016;2023-07-20T03:39:32;9.70;;;4.97;;
54883;SDS011;40776;52.880;6.016;2023-07-20T03:41:58;4.38;;;3.60;;
54883;SDS011;40776;52.880;6.016;2023-07-20T03:44:24;8.02;;;3.80;;
54883;SDS011;40776;52.880;6.016;2023-07-20T03:46:51;6.97;;;4.05;;
54883;SDS011;40776;52.880;6.016;2023-07-20T03:49:17;6.80;;;4.20;;
54883;SDS011;40776;52.880;6.016;2023-07-20T03:51:43;6.22;;;4.15;;
54883;SDS011;40776;52.880;6.016;2023-07-20T03:54:09;6.97;;;3.70;;
54883;SDS011;40776;52.880;6.016;2023-07-20T03:56:35;6.25;;;4.38;;
54883;SDS011;40776;52.880;6.016;2023-07-20T03:59:01;6.35;;;3.78;;
54883;SDS011;40776;52.880;6.016;2023-07-20T04:01:27;6.47;;;4.15;;
54883;SDS011;40776;52.880;6.016;2023-07-20T04:03:53;6.00;;;3.67;;
54883;SDS011;40776;52.880;6.016;2023-07-20T04:06:20;9.05;;;4.28;;
54883;SDS011;40776;52.880;6.016;2023-07-20T04:08:46;7.45;;;4.43;;
54883;SDS011;40776;52.880;6.016;2023-07-20T04:11:12;6.43;;;4.70;;
54883;SDS011;40776;52.880;6.016;2023-07-20T04:13:38;4.70;;;3.75;;
54883;SDS011;40776;52.880;6.016;2023-07-20T04:16:04;4.65;;;3.80;;
54883;SDS011;40776;52.880;6.016;2023-07-20T04:18:30;5.30;;;3.38;;
54883;SDS011;40776;52.880;6.016;2023-07-20T04:20:57;4.93;;;3.67;;
54883;SDS011;40776;52.880;6.016;2023-07-20T04:23:23;5.40;;;3.92;;
54883;SDS011;40776;52.880;6.016;2023-07-20T04:25:49;7.88;;;4.18;;
54883;SDS011;40776;52.880;6.016;2023-07-20T04:28:15;5.25;;;3.50;;
54883;SDS011;40776;52.880;6.016;2023-07-20T04:30:42;4.95;;;3.88;;
54883;SDS011;40776;52.880;6.016;2023-07-20T04:33:08;7.78;;;4.30;;
54883;SDS011;40776;52.880;6.016;2023-07-20T04:35:50;6.03;;;4.80;;
54883;SDS011;40776;52.880;6.016;2023-07-20T04:38:16;6.28;;;5.03;;
54883;SDS011;40776;52.880;6.016;2023-07-20T04:40:45;6.13;;;4.60;;
54883;SDS011;40776;52.880;6.016;2023-07-20T04:43:12;9.02;;;6.30;;
54883;SDS011;40776;52.880;6.016;2023-07-20T04:45:38;11.45;;;7.65;;
54883;SDS011;40776;52.880;6.016;2023-07-20T04:48:09;11.80;;;8.52;;
54883;SDS011;40776;52.880;6.016;2023-07-20T04:50:36;18.35;;;9.95;;
54883;SDS011;40776;52.880;6.016;2023-07-20T04:53:02;12.00;;;9.05;;
54883;SDS011;40776;52.880;6.016;2023-07-20T04:55:28;15.13;;;7.65;;
54883;SDS011;40776;52.880;6.016;2023-07-20T04:57:55;8.05;;;5.93;;
54883;SDS011;40776;52.880;6.016;2023-07-20T05:00:21;7.85;;;5.82;;
54883;SDS011;40776;52.880;6.016;2023-07-20T05:02:47;9.70;;;5.57;;
54883;SDS011;40776;52.880;6.016;2023-07-20T05:05:14;10.30;;;6.18;;
54883;SDS011;40776;52.880;6.016;2023-07-20T05:07:40;7.57;;;6.15;;
54883;SDS011;40776;52.880;6.016;2023-07-20T05:10:06;9.45;;;5.90;;
54883;SDS011;40776;52.880;6.016;2023-07-20T05:12:33;9.77;;;6.22;;
54883;SDS011;40776;52.880;6.016;2023-07-20T05:14:59;12.20;;;6.32;;
54883;SDS011;40776;52.880;6.016;2023-07-20T05:17:25;8.70;;;5.25;;
54883;SDS011;40776;52.880;6.016;2023-07-20T05:19:51;8.65;;;4.80;;
54883;SDS011;40776;52.880;6.016;2023-07-20T05:22:17;6.57;;;4.93;;
54883;SDS011;40776;52.880;6.016;2023-07-20T05:24:43;7.53;;;4.97;;
54883;SDS011;40776;52.880;6.016;2023-07-20T05:27:09;6.93;;;4.90;;
54883;SDS011;40776;52.880;6.016;2023-07-20T05:29:35;6.50;;;4.65;;
54883;SDS011;40776;52.880;6.016;2023-07-20T05:32:01;5.80;;;3.97;;
54883;SDS011;40776;52.880;6.016;2023-07-20T05:34:28;6.60;;;4.35;;
54883;SDS011;40776;52.880;6.016;2023-07-20T05:36:54;8.77;;;3.92;;
54883;SDS011;40776;52.880;6.016;2023-07-20T05:39:21;6.32;;;4.45;;
54883;SDS011;40776;52.880;6.016;2023-07-20T05:41:47;7.03;;;3.53;;
54883;SDS011;40776;52.880;6.016;2023-07-20T05:44:13;4.65;;;3.08;;
54883;SDS011;40776;52.880;6.016;2023-07-20T05:46:39;5.00;;;3.60;;
54883;SDS011;40776;52.880;6.016;2023-07-20T05:49:05;6.38;;;4.55;;
54883;SDS011;40776;52.880;6.016;2023-07-20T05:51:31;7.28;;;5.05;;
54883;SDS011;40776;52.880;6.016;2023-07-20T05:53:57;7.63;;;5.00;;
54883;SDS011;40776;52.880;6.016;2023-07-20T05:56:24;8.07;;;3.65;;
54883;SDS011;40776;52.880;6.016;2023-07-20T05:58:50;5.93;;;3.53;;
54883;SDS011;40776;52.880;6.016;2023-07-20T06:01:16;7.03;;;2.40;;
54883;SDS011;40776;52.880;6.016;2023-07-20T06:03:43;4.50;;;1.80;;
54883;SDS011;40776;52.880;6.016;2023-07-20T06:06:09;4.68;;;1.60;;
54883;SDS011;40776;52.880;6.016;2023-07-20T06:08:37;3.25;;;1.52;;
54883;SDS011;40776;52.880;6.016;2023-07-20T06:11:03;4.32;;;1.73;;
54883;SDS011;40776;52.880;6.016;2023-07-20T06:13:29;3.40;;;1.98;;
54883;SDS011;40776;52.880;6.016;2023-07-20T06:15:56;3.40;;;1.95;;
54883;SDS011;40776;52.880;6.016;2023-07-20T06:18:22;2.17;;;1.35;;
54883;SDS011;40776;52.880;6.016;2023-07-20T06:20:49;5.10;;;1.60;;
54883;SDS011;40776;52.880;6.016;2023-07-20T06:23:16;2.47;;;1.45;;
54883;SDS011;40776;52.880;6.016;2023-07-20T06:25:42;4.32;;;1.42;;
54883;SDS011;40776;52.880;6.016;2023-07-20T06:28:08;3.70;;;1.60;;
54883;SDS011;40776;52.880;6.016;2023-07-20T06:30:34;3.08;;;1.25;;
54883;SDS011;40776;52.880;6.016;2023-07-20T06:33:00;2.95;;;1.08;;
54883;SDS011;40776;52.880;6.016;2023-07-20T06:35:26;2.70;;;1.50;;
54883;SDS011;40776;52.880;6.016;2023-07-20T06:37:52;5.80;;;1.40;;
54883;SDS011;40776;52.880;6.016;2023-07-20T06:40:18;1.75;;;1.20;;
54883;SDS011;40776;52.880;6.016;2023-07-20T06:42:44;3.80;;;1.30;;
54883;SDS011;40776;52.880;6.016;2023-07-20T06:45:10;2.90;;;1.10;;
54883;SDS011;40776;52.880;6.016;2023-07-20T06:47:39;3.42;;;1.00;;
54883;SDS011;40776;52.880;6.016;2023-07-20T06:50:06;4.20;;;1.20;;
54883;SDS011;40776;52.880;6.016;2023-07-20T06:52:32;3.55;;;1.00;;
54883;SDS011;40776;52.880;6.016;2023-07-20T06:54:58;3.20;;;1.20;;
54883;SDS011;40776;52.880;6.016;2023-07-20T06:57:25;3.00;;;0.98;;
54883;SDS011;40776;52.880;6.016;2023-07-20T06:59:51;4.75;;;1.00;;
54883;SDS011;40776;52.880;6.016;2023-07-20T07:02:18;3.75;;;1.00;;
54883;SDS011;40776;52.880;6.016;2023-07-20T07:04:44;4.40;;;0.98;;
54883;SDS011;40776;52.880;6.016;2023-07-20T07:07:15;3.75;;;0.80;;
54883;SDS011;40776;52.880;6.016;2023-07-20T07:09:41;3.30;;;0.85;;
54883;SDS011;40776;52.880;6.016;2023-07-20T07:12:07;3.40;;;1.30;;
54883;SDS011;40776;52.880;6.016;2023-07-20T07:14:33;4.95;;;0.88;;
54883;SDS011;40776;52.880;6.016;2023-07-20T07:17:00;1.92;;;0.98;;
54883;SDS011;40776;52.880;6.016;2023-07-20T07:19:26;3.75;;;1.00;;
54883;SDS011;40776;52.880;6.016;2023-07-20T07:21:52;2.10;;;0.80;;
54883;SDS011;40776;52.880;6.016;2023-07-20T07:24:18;2.72;;;0.95;;
54883;SDS011;40776;52.880;6.016;2023-07-20T07:26:44;2.00;;;0.82;;
54883;SDS011;40776;52.880;6.016;2023-07-20T07:29:10;3.65;;;1.00;;
54883;SDS011;40776;52.880;6.016;2023-07-20T07:31:36;3.65;;;1.10;;
54883;SDS011;40776;52.880;6.016;2023-07-20T07:34:03;4.22;;;1.30;;
54883;SDS011;40776;52.880;6.016;2023-07-20T07:36:33;3.75;;;1.10;;
54883;SDS011;40776;52.880;6.016;2023-07-20T07:38:59;2.13;;;0.90;;
54883;SDS011;40776;52.880;6.016;2023-07-20T07:41:25;3.35;;;0.90;;
54883;SDS011;40776;52.880;6.016;2023-07-20T07:43:51;4.85;;;0.90;;
54883;SDS011;40776;52.880;6.016;2023-07-20T07:46:17;5.00;;;1.10;;
54883;SDS011;40776;52.880;6.016;2023-07-20T07:48:43;2.65;;;1.00;;
54883;SDS011;40776;52.880;6.016;2023-07-20T07:51:09;2.55;;;1.35;;
54883;SDS011;40776;52.880;6.016;2023-07-20T07:53:35;2.90;;;0.90;;
54883;SDS011;40776;52.880;6.016;2023-07-20T07:56:02;3.45;;;1.00;;
54883;SDS011;40776;52.880;6.016;2023-07-20T07:58:28;4.85;;;0.95;;
54883;SDS011;40776;52.880;6.016;2023-07-20T08:00:54;2.28;;;0.80;;
54883;SDS011;40776;52.880;6.016;2023-07-20T08:03:20;4.45;;;1.13;;
54883;SDS011;40776;52.880;6.016;2023-07-20T08:05:46;1.58;;;0.70;;
54883;SDS011;40776;52.880;6.016;2023-07-20T08:08:12;2.35;;;0.85;;
54883;SDS011;40776;52.880;6.016;2023-07-20T08:10:38;3.25;;;0.85;;
54883;SDS011;40776;52.880;6.016;2023-07-20T08:13:04;2.08;;;0.90;;
54883;SDS011;40776;52.880;6.016;2023-07-20T08:15:30;2.53;;;1.45;;
54883;SDS011;40776;52.880;6.016;2023-07-20T08:17:56;6.07;;;1.17;;
54883;SDS011;40776;52.880;6.016;2023-07-20T08:20:24;4.07;;;0.90;;
54883;SDS011;40776;52.880;6.016;2023-07-20T08:22:54;2.85;;;0.90;;
54883;SDS011;40776;52.880;6.016;2023-07-20T08:25:21;2.92;;;0.85;;
54883;SDS011;40776;52.880;6.016;2023-07-20T08:27:47;6.43;;;0.90;;
54883;SDS011;40776;52.880;6.016;2023-07-20T08:30:13;2.67;;;0.73;;
54883;SDS011;40776;52.880;6.016;2023-07-20T08:32:39;1.83;;;0.80;;
54883;SDS011;40776;52.880;6.016;2023-07-20T08:35:05;3.47;;;0.75;;
54883;SDS011;40776;52.880;6.016;2023-07-20T08:37:31;2.65;;;1.00;;
54883;SDS011;40776;52.880;6.016;2023-07-20T08:39:57;2.05;;;0.70;;
54883;SDS011;40776;52.880;6.016;2023-07-20T08:42:23;1.80;;;0.55;;
54883;SDS011;40776;52.880;6.016;2023-07-20T08:44:50;2.17;;;0.60;;
54883;SDS011;40776;52.880;6.016;2023-07-20T08:47:18;1.65;;;0.95;;
54883;SDS011;40776;52.880;6.016;2023-07-20T08:49:47;2.13;;;0.50;;
54883;SDS011;40776;52.880;6.016;2023-07-20T08:52:14;1.33;;;0.60;;
54883;SDS011;40776;52.880;6.016;2023-07-20T08:54:40;3.80;;;0.70;;
54883;SDS011;40776;52.880;6.016;2023-07-20T08:57:06;1.17;;;0.50;;
54883;SDS011;40776;52.880;6.016;2023-07-20T08:59:32;2.47;;;0.50;;
54883;SDS011;40776;52.880;6.016;2023-07-20T09:02:02;2.60;;;0.65;;
54883;SDS011;40776;52.880;6.016;2023-07-20T09:04:28;1.13;;;0.60;;
54883;SDS011;40776;52.880;6.016;2023-07-20T09:06:54;2.85;;;0.70;;
54883;SDS011;40776;52.880;6.016;2023-07-20T09:09:20;2.88;;;0.65;;
54883;SDS011;40776;52.880;6.016;2023-07-20T09:11:49;1.98;;;0.75;;
54883;SDS011;40776;52.880;6.016;2023-07-20T09:14:16;1.33;;;0.53;;
54883;SDS011;40776;52.880;6.016;2023-07-20T09:16:54;3.17;;;1.00;;
54883;SDS011;40776;52.880;6.016;2023-07-20T09:19:21;2.78;;;0.60;;
54883;SDS011;40776;52.880;6.016;2023-07-20T09:21:51;4.72;;;1.45;;
54883;SDS011;40776;52.880;6.016;2023-07-20T09:24:18;1.38;;;0.55;;
54883;SDS011;40776;52.880;6.016;2023-07-20T09:26:44;2.22;;;0.80;;
54883;SDS011;40776;52.880;6.016;2023-07-20T09:29:13;2.70;;;0.63;;
54883;SDS011;40776;52.880;6.016;2023-07-20T09:31:43;2.72;;;1.10;;
54883;SDS011;40776;52.880;6.016;2023-07-20T09:34:32;3.63;;;0.70;;
54883;SDS011;40776;52.880;6.016;2023-07-20T09:36:58;2.05;;;0.60;;
54883;SDS011;40776;52.880;6.016;2023-07-20T09:39:28;2.92;;;0.68;;
54883;SDS011;40776;52.880;6.016;2023-07-20T09:41:54;1.38;;;0.68;;
54883;SDS011;40776;52.880;6.016;2023-07-20T09:44:27;4.13;;;0.60;;
54883;SDS011;40776;52.880;6.016;2023-07-20T09:46:53;5.75;;;0.80;;
54883;SDS011;40776;52.880;6.016;2023-07-20T09:49:20;0.88;;;0.40;;
54883;SDS011;40776;52.880;6.016;2023-07-20T09:51:46;1.17;;;0.65;;
54883;SDS011;40776;52.880;6.016;2023-07-20T09:54:13;1.70;;;0.68;;
54883;SDS011;40776;52.880;6.016;2023-07-20T09:56:39;1.40;;;0.50;;
54883;SDS011;40776;52.880;6.016;2023-07-20T09:59:07;1.17;;;0.50;;
54883;SDS011;40776;52.880;6.016;2023-07-20T10:01:33;2.00;;;0.70;;
54883;SDS011;40776;52.880;6.016;2023-07-20T10:04:02;2.83;;;0.68;;
54883;SDS011;40776;52.880;6.016;2023-07-20T10:06:29;1.73;;;0.60;;
54883;SDS011;40776;52.880;6.016;2023-07-20T10:09:00;2.40;;;0.70;;
54883;SDS011;40776;52.880;6.016;2023-07-20T10:11:29;3.55;;;0.98;;
54883;SDS011;40776;52.880;6.016;2023-07-20T10:13:59;1.85;;;0.80;;
54883;SDS011;40776;52.880;6.016;2023-07-20T10:16:29;2.53;;;0.70;;
54883;SDS011;40776;52.880;6.016;2023-07-20T10:19:05;1.05;;;0.50;;
54883;SDS011;40776;52.880;6.016;2023-07-20T10:21:39;1.88;;;0.60;;
54883;SDS011;40776;52.880;6.016;2023-07-20T10:24:07;0.77;;;0.47;;
54883;SDS011;40776;52.880;6.016;2023-07-20T10:26:36;3.63;;;0.70;;
54883;SDS011;40776;52.880;6.016;2023-07-20T10:29:02;3.63;;;0.88;;
54883;SDS011;40776;52.880;6.016;2023-07-20T10:31:29;1.45;;;0.68;;
54883;SDS011;40776;52.880;6.016;2023-07-20T10:33:56;4.22;;;0.90;;
54883;SDS011;40776;52.880;6.016;2023-07-20T10:36:26;1.27;;;0.73;;
54883;SDS011;40776;52.880;6.016;2023-07-20T10:38:53;0.88;;;0.55;;
54883;SDS011;40776;52.880;6.016;2023-07-20T10:43:47;2.25;;;0.60;;
54883;SDS011;40776;52.880;6.016;2023-07-20T10:46:17;2.63;;;0.57;;
54883;SDS011;40776;52.880;6.016;2023-07-20T10:49:11;2.33;;;0.77;;
54883;SDS011;40776;52.880;6.016;2023-07-20T10:51:46;2.25;;;0.60;;
54883;SDS011;40776;52.880;6.016;2023-07-20T10:56:44;1.77;;;0.73;;
54883;SDS011;40776;52.880;6.016;2023-07-20T10:59:35;2.42;;;0.70;;
54883;SDS011;40776;52.880;6.016;2023-07-20T11:02:11;1.83;;;0.80;;
54883;SDS011;40776;52.880;6.016;2023-07-20T11:04:39;2.15;;;0.77;;
54883;SDS011;40776;52.880;6.016;2023-07-20T11:07:07;1.67;;;1.30;;
54883;SDS011;40776;52.880;6.016;2023-07-20T11:09:37;2.63;;;0.70;;
54883;SDS011;40776;52.880;6.016;2023-07-20T11:12:10;4.43;;;0.73;;
54883;SDS011;40776;52.880;6.016;2023-07-20T11:14:57;2.67;;;0.88;;
54883;SDS011;40776;52.880;6.016;2023-07-20T11:17:30;3.28;;;0.65;;
54883;SDS011;40776;52.880;6.016;2023-07-20T11:19:58;2.42;;;0.70;;
54883;SDS011;40776;52.880;6.016;2023-07-20T11:22:26;1.17;;;0.60;;
54883;SDS011;40776;52.880;6.016;2023-07-20T11:24:57;3.15;;;0.50;;
54883;SDS011;40776;52.880;6.016;2023-07-20T11:27:24;4.13;;;0.80;;
54883;SDS011;40776;52.880;6.016;2023-07-20T11:29:51;1.92;;;0.70;;
54883;SDS011;40776;52.880;6.016;2023-07-20T11:32:21;2.72;;;0.90;;
54883;SDS011;40776;52.880;6.016;2023-07-20T11:34:48;3.47;;;0.80;;
54883;SDS011;40776;52.880;6.016;2023-07-20T11:37:16;4.13;;;1.55;;
54883;SDS011;40776;52.880;6.016;2023-07-20T11:39:54;1.85;;;0.80;;
54883;SDS011;40776;52.880;6.016;2023-07-20T11:42:23;1.67;;;0.68;;
54883;SDS011;40776;52.880;6.016;2023-07-20T11:44:51;5.38;;;0.80;;
54883;SDS011;40776;52.880;6.016;2023-07-20T11:47:17;1.88;;;0.80;;
54883;SDS011;40776;52.880;6.016;2023-07-20T11:49:44;2.47;;;0.80;;
54883;SDS011;40776;52.880;6.016;2023-07-20T11:52:15;1.75;;;0.70;;
54883;SDS011;40776;52.880;6.016;2023-07-20T11:54:42;2.25;;;0.50;;
54883;SDS011;40776;52.880;6.016;2023-07-20T11:57:26;1.80;;;0.60;;
54883;SDS011;40776;52.880;6.016;2023-07-20T11:59:55;1.38;;;0.50;;
54883;SDS011;40776;52.880;6.016;2023-07-20T12:02:23;1.40;;;0.63;;
54883;SDS011;40776;52.880;6.016;2023-07-20T12:04:51;1.27;;;0.60;;
54883;SDS011;40776;52.880;6.016;2023-07-20T12:07:18;1.58;;;0.60;;
54883;SDS011;40776;52.880;6.016;2023-07-20T12:09:44;1.13;;;0.70;;
54883;SDS011;40776;52.880;6.016;2023-07-20T12:12:28;1.42;;;0.55;;
54883;SDS011;40776;52.880;6.016;2023-07-20T12:14:54;2.83;;;0.70;;
54883;SDS011;40776;52.880;6.016;2023-07-20T12:17:20;1.60;;;0.60;;
54883;SDS011;40776;52.880;6.016;2023-07-20T12:19:46;1.10;;;0.50;;
54883;SDS011;40776;52.880;6.016;2023-07-20T12:22:11;30.73;;;1.45;;
54883;SDS011;40776;52.880;6.016;2023-07-20T12:24:37;2.78;;;0.70;;
54883;SDS011;40776;52.880;6.016;2023-07-20T12:27:04;2.10;;;0.73;;
54883;SDS011;40776;52.880;6.016;2023-07-20T12:29:30;2.25;;;0.60;;
54883;SDS011;40776;52.880;6.016;2023-07-20T12:32:00;2.03;;;0.60;;
54883;SDS011;40776;52.880;6.016;2023-07-20T12:34:30;1.20;;;0.50;;
54883;SDS011;40776;52.880;6.016;2023-07-20T12:36:55;1.95;;;0.70;;
54883;SDS011;40776;52.880;6.016;2023-07-20T12:39:22;1.02;;;0.55;;
54883;SDS011;40776;52.880;6.016;2023-07-20T12:41:48;1.38;;;0.50;;
54883;SDS011;40776;52.880;6.016;2023-07-20T12:44:14;1.45;;;0.50;;
54883;SDS011;40776;52.880;6.016;2023-07-20T12:46:40;1.35;;;0.43;;
54883;SDS011;40776;52.880;6.016;2023-07-20T12:49:05;2.72;;;0.70;;
54883;SDS011;40776;52.880;6.016;2023-07-20T12:51:34;1.13;;;0.47;;
54883;SDS011;40776;52.880;6.016;2023-07-20T12:54:00;2.58;;;0.50;;
54883;SDS011;40776;52.880;6.016;2023-07-20T12:56:26;1.30;;;0.40;;
54883;SDS011;40776;52.880;6.016;2023-07-20T12:58:51;1.92;;;0.63;;
54883;SDS011;40776;52.880;6.016;2023-07-20T13:01:17;0.85;;;0.45;;
54883;SDS011;40776;52.880;6.016;2023-07-20T13:03:43;0.60;;;0.40;;
54883;SDS011;40776;52.880;6.016;2023-07-20T13:06:09;1.98;;;0.57;;
54883;SDS011;40776;52.880;6.016;2023-07-20T13:08:35;1.90;;;0.68;;
54883;SDS011;40776;52.880;6.016;2023-07-20T13:11:01;1.17;;;0.57;;
54883;SDS011;40776;52.880;6.016;2023-07-20T13:13:28;1.20;;;0.60;;
54883;SDS011;40776;52.880;6.016;2023-07-20T13:15:54;0.28;;;0.25;;
54883;SDS011;40776;52.880;6.016;2023-07-20T13:18:20;2.63;;;0.88;;
54883;SDS011;40776;52.880;6.016;2023-07-20T13:20:46;3.80;;;0.60;;
54883;SDS011;40776;52.880;6.016;2023-07-20T13:23:12;3.63;;;0.80;;
54883;SDS011;40776;52.880;6.016;2023-07-20T13:25:38;0.47;;;0.40;;
54883;SDS011;40776;52.880;6.016;2023-07-20T13:28:05;1.30;;;0.50;;
54883;SDS011;40776;52.880;6.016;2023-07-20T13:30:31;1.13;;;0.60;;
54883;SDS011;40776;52.880;6.016;2023-07-20T13:32:56;0.85;;;0.40;;
54883;SDS011;40776;52.880;6.016;2023-07-20T13:35:22;2.00;;;0.55;;
54883;SDS011;40776;52.880;6.016;2023-07-20T13:37:48;1.00;;;0.50;;
54883;SDS011;40776;52.880;6.016;2023-07-20T13:40:15;1.80;;;0.50;;
54883;SDS011;40776;52.880;6.016;2023-07-20T13:42:43;3.92;;;0.60;;
54883;SDS011;40776;52.880;6.016;2023-07-20T13:45:10;1.58;;;0.68;;
54883;SDS011;40776;52.880;6.016;2023-07-20T13:47:36;3.75;;;0.60;;
54883;SDS011;40776;52.880;6.016;2023-07-20T13:50:02;1.98;;;0.80;;
54883;SDS011;40776;52.880;6.016;2023-07-20T13:52:28;1.67;;;0.40;;
54883;SDS011;40776;52.880;6.016;2023-07-20T13:54:54;2.05;;;0.70;;
54883;SDS011;40776;52.880;6.016;2023-07-20T13:57:20;2.25;;;0.85;;
54883;SDS011;40776;52.880;6.016;2023-07-20T13:59:46;2.72;;;0.60;;
54883;SDS011;40776;52.880;6.016;2023-07-20T14:02:13;1.27;;;0.70;;
54883;SDS011;40776;52.880;6.016;2023-07-20T14:04:40;2.67;;;0.80;;
54883;SDS011;40776;52.880;6.016;2023-07-20T14:07:06;3.65;;;0.60;;
54883;SDS011;40776;52.880;6.016;2023-07-20T14:09:32;1.65;;;0.80;;
54883;SDS011;40776;52.880;6.016;2023-07-20T14:11:57;0.70;;;0.50;;
54883;SDS011;40776;52.880;6.016;2023-07-20T14:14:23;1.90;;;0.60;;
54883;SDS011;40776;52.880;6.016;2023-07-20T14:16:50;1.15;;;0.60;;
54883;SDS011;40776;52.880;6.016;2023-07-20T14:19:15;2.25;;;0.60;;
54883;SDS011;40776;52.880;6.016;2023-07-20T14:21:41;1.20;;;0.50;;
54883;SDS011;40776;52.880;6.016;2023-07-20T14:24:08;1.90;;;0.57;;
54883;SDS011;40776;52.880;6.016;2023-07-20T14:26:36;1.48;;;0.88;;
54883;SDS011;40776;52.880;6.016;2023-07-20T14:29:02;1.83;;;0.60;;
54883;SDS011;40776;52.880;6.016;2023-07-20T14:31:28;2.95;;;0.88;;
54883;SDS011;40776;52.880;6.016;2023-07-20T14:33:54;0.98;;;0.45;;
54883;SDS011;40776;52.880;6.016;2023-07-20T14:36:20;1.60;;;0.60;;
54883;SDS011;40776;52.880;6.016;2023-07-20T14:38:46;3.10;;;0.68;;
54883;SDS011;40776;52.880;6.016;2023-07-20T14:41:12;2.40;;;0.70;;
54883;SDS011;40776;52.880;6.016;2023-07-20T14:43:38;3.15;;;0.70;;
54883;SDS011;40776;52.880;6.016;2023-07-20T14:46:03;2.42;;;0.70;;
54883;SDS011;40776;52.880;6.016;2023-07-20T14:48:30;2.30;;;0.80;;
54883;SDS011;40776;52.880;6.016;2023-07-20T14:50:57;4.72;;;0.90;;
54883;SDS011;40776;52.880;6.016;2023-07-20T14:53:22;1.73;;;0.65;;
54883;SDS011;40776;52.880;6.016;2023-07-20T14:55:48;2.65;;;1.23;;
54883;SDS011;40776;52.880;6.016;2023-07-20T14:58:14;3.00;;;0.85;;
54883;SDS011;40776;52.880;6.016;2023-07-20T15:00:40;2.15;;;0.80;;
54883;SDS011;40776;52.880;6.016;2023-07-20T15:05:36;1.52;;;0.60;;
54883;SDS011;40776;52.880;6.016;2023-07-20T15:08:03;5.75;;;0.90;;